Time;durP1;ratioP1;P1;durP2;ratioP2;P2;SDS_P1;SDS_P2;PMS_P1;PMS_P2;Temp;Humidity;BMP_temperature;BMP_pressure;BME280_temperature;BME280_humidity;BME280_pressure;Samples;Min_cycle;Max_cycle;Signal;HPM_P1;HPM_P2
2020/12/18 00:01:21;;;;;;;25.97;14.13;;;1.90;99.90;;;;;;5012797;28;20221;-80
2020/12/18 00:03:49;;;;;;;23.60;12.67;;;1.90;99.90;;;;;;5015069;28;20201;-80
2020/12/18 00:06:16;;;;;;;21.43;12.90;;;1.90;99.90;;;;;;5014647;28;20201;-80
2020/12/18 00:08:42;;;;;;;21.67;13.13;;;1.90;99.90;;;;;;5014795;28;20220;-80
2020/12/18 00:11:09;;;;;;;23.13;13.47;;;2.00;99.90;;;;;;5015445;28;20207;-81
2020/12/18 00:13:36;;;;;;;21.53;13.50;;;2.00;99.90;;;;;;5014185;28;20200;-80
2020/12/18 00:16:03;;;;;;;27.60;13.70;;;2.00;99.90;;;;;;5014765;28;20213;-80
2020/12/18 00:18:30;;;;;;;26.80;14.20;;;2.00;99.90;;;;;;5015895;28;20225;-79
2020/12/18 00:20:56;;;;;;;26.53;12.87;;;2.00;99.90;;;;;;5013953;28;20259;-80
2020/12/18 00:23:23;;;;;;;36.30;13.87;;;2.00;99.90;;;;;;5015895;28;20608;-81
2020/12/18 00:25:51;;;;;;;41.13;14.70;;;2.00;99.90;;;;;;5018396;28;20578;-81
2020/12/18 00:28:18;;;;;;;43.67;15.30;;;2.00;99.90;;;;;;5033633;28;20528;-80
2020/12/18 00:30:47;;;;;;;27.67;14.13;;;2.00;99.90;;;;;;5033441;28;20200;-80
2020/12/18 00:33:14;;;;;;;28.00;14.57;;;2.00;99.90;;;;;;5031000;28;20212;-80
2020/12/18 00:35:40;;;;;;;35.47;14.57;;;1.90;99.90;;;;;;5014133;28;20255;-80
2020/12/18 00:38:07;;;;;;;24.50;13.53;;;1.90;99.90;;;;;;5014316;28;20271;-80
2020/12/18 00:40:34;;;;;;;27.53;13.07;;;1.90;99.90;;;;;;5015491;28;20211;-81
2020/12/18 00:43:01;;;;;;;27.73;14.87;;;1.90;99.90;;;;;;5016486;28;20622;-81
2020/12/18 00:45:27;;;;;;;28.73;14.87;;;1.90;99.90;;;;;;5016743;28;20573;-80
2020/12/18 00:47:54;;;;;;;34.67;14.43;;;2.00;99.90;;;;;;5014617;28;20205;-80
2020/12/18 00:50:20;;;;;;;48.87;14.43;;;2.00;99.90;;;;;;5015204;28;20204;-80
2020/12/18 00:52:47;;;;;;;27.67;14.30;;;2.00;99.90;;;;;;5015425;28;20410;-81
2020/12/18 00:55:14;;;;;;;35.10;14.23;;;2.00;99.90;;;;;;5015400;28;20232;-80
2020/12/18 00:57:40;;;;;;;33.00;15.03;;;2.00;99.90;;;;;;5015785;28;20628;-81
2020/12/18 01:00:07;;;;;;;37.43;16.17;;;2.00;99.90;;;;;;5015726;28;20279;-80
2020/12/18 01:02:34;;;;;;;37.10;16.20;;;2.00;99.90;;;;;;5016608;28;20181;-81
2020/12/18 01:05:01;;;;;;;36.07;15.30;;;2.10;99.90;;;;;;5016565;28;20201;-81
2020/12/18 01:07:28;;;;;;;43.23;15.30;;;2.10;99.90;;;;;;5018862;28;20197;-81
2020/12/18 01:09:55;;;;;;;44.40;16.70;;;2.10;99.90;;;;;;5019208;28;20197;-80
2020/12/18 01:12:21;;;;;;;27.33;14.67;;;2.10;99.90;;;;;;5021810;28;20231;-80
2020/12/18 01:14:48;;;;;;;35.13;15.70;;;2.10;99.90;;;;;;5020351;28;20251;-81
2020/12/18 01:17:15;;;;;;;27.53;14.93;;;2.10;99.90;;;;;;5020220;28;20200;-80
2020/12/18 01:19:41;;;;;;;30.83;14.50;;;2.10;99.90;;;;;;5022061;28;20271;-80
2020/12/18 01:22:08;;;;;;;141.73;20.50;;;2.10;99.90;;;;;;5020702;28;20197;-80
2020/12/18 01:24:35;;;;;;;28.17;15.20;;;2.10;99.90;;;;;;5021561;28;20201;-81
2020/12/18 01:27:01;;;;;;;32.60;15.73;;;2.10;99.90;;;;;;5020876;28;20216;-81
2020/12/18 01:29:28;;;;;;;31.67;14.10;;;2.10;99.90;;;;;;5022432;28;20659;-81
2020/12/18 01:31:55;;;;;;;36.53;16.10;;;2.10;99.90;;;;;;5020830;28;20196;-81
2020/12/18 01:34:21;;;;;;;37.37;16.07;;;2.10;99.90;;;;;;5021588;28;20217;-81
2020/12/18 01:36:48;;;;;;;27.07;14.00;;;2.10;99.90;;;;;;5022029;28;20205;-81
2020/12/18 01:39:14;;;;;;;38.40;15.57;;;2.10;99.90;;;;;;5021925;28;20279;-81
2020/12/18 01:41:41;;;;;;;29.63;14.33;;;2.20;99.90;;;;;;5022201;28;20228;-81
2020/12/18 01:44:08;;;;;;;31.17;15.03;;;2.10;99.90;;;;;;5022556;28;20251;-81
2020/12/18 01:46:37;;;;;;;31.43;16.33;;;2.20;99.90;;;;;;5024265;28;20222;-80
2020/12/18 01:49:04;;;;;;;30.40;14.93;;;2.20;99.90;;;;;;5035465;28;20185;-81
2020/12/18 01:51:44;;;;;;;41.20;16.03;;;2.20;99.90;;;;;;5023488;28;20205;-81
2020/12/18 01:54:11;;;;;;;27.83;14.23;;;2.20;99.90;;;;;;5009767;28;20953;-80
2020/12/18 01:56:39;;;;;;;24.03;13.37;;;2.20;99.90;;;;;;5009629;28;20662;-80
2020/12/18 01:59:06;;;;;;;35.27;14.30;;;2.20;99.90;;;;;;5010265;28;20221;-80
2020/12/18 02:01:32;;;;;;;32.63;13.80;;;2.20;99.90;;;;;;5009257;28;20229;-80
2020/12/18 02:04:00;;;;;;;24.80;12.90;;;2.20;99.90;;;;;;5009126;28;20236;-80
2020/12/18 02:06:30;;;;;;;20.53;10.80;;;2.20;99.90;;;;;;5009547;28;20232;-80
2020/12/18 02:08:57;;;;;;;22.10;11.80;;;2.10;99.90;;;;;;5008640;28;20200;-79
2020/12/18 02:11:24;;;;;;;20.73;11.43;;;2.10;99.90;;;;;;5008958;28;20605;-80
2020/12/18 02:13:52;;;;;;;24.03;11.93;;;2.10;99.90;;;;;;5009434;28;20205;-80
2020/12/18 02:16:23;;;;;;;22.17;11.17;;;2.10;99.90;;;;;;5009103;28;20275;-80
2020/12/18 02:18:50;;;;;;;19.30;11.40;;;2.10;99.90;;;;;;5007922;28;20267;-80
2020/12/18 02:21:17;;;;;;;17.50;10.87;;;2.00;99.90;;;;;;5008655;28;20263;-80
2020/12/18 02:23:48;;;;;;;25.47;12.60;;;2.00;99.90;;;;;;5008498;28;20544;-79
2020/12/18 02:26:16;;;;;;;22.57;12.60;;;2.00;99.90;;;;;;5014703;28;20177;-80
2020/12/18 02:28:47;;;;;;;24.60;11.80;;;2.00;99.90;;;;;;5015002;28;20204;-80
2020/12/18 02:31:14;;;;;;;19.27;11.67;;;2.00;99.90;;;;;;5013875;28;20517;-80
2020/12/18 02:33:42;;;;;;;22.57;12.37;;;1.90;99.90;;;;;;5013693;28;20217;-80
2020/12/18 02:36:09;;;;;;;20.00;11.03;;;1.90;99.90;;;;;;5013501;28;20264;-80
2020/12/18 02:38:36;;;;;;;19.50;10.70;;;1.90;99.90;;;;;;5012722;28;20217;-80
2020/12/18 02:41:04;;;;;;;19.47;10.97;;;1.80;99.90;;;;;;5014825;28;20201;-80
2020/12/18 02:43:31;;;;;;;19.47;12.23;;;1.80;99.90;;;;;;5015117;28;20208;-80
2020/12/18 02:45:58;;;;;;;17.87;10.77;;;1.80;99.90;;;;;;5015063;28;20618;-80
2020/12/18 02:48:26;;;;;;;21.37;12.17;;;1.80;99.90;;;;;;5013543;28;20229;-80
2020/12/18 02:50:53;;;;;;;17.83;10.67;;;1.80;99.90;;;;;;5013799;28;20220;-80
2020/12/18 02:53:22;;;;;;;19.63;11.90;;;1.80;99.90;;;;;;5013266;28;20471;-80
2020/12/18 02:55:49;;;;;;;21.70;11.53;;;1.80;99.90;;;;;;5014264;28;20204;-81
2020/12/18 02:58:15;;;;;;;18.53;11.43;;;1.80;99.90;;;;;;5013664;28;20638;-80
2020/12/18 03:00:42;;;;;;;21.57;12.10;;;1.80;99.90;;;;;;5014384;28;20299;-80
2020/12/18 03:03:09;;;;;;;20.07;11.73;;;1.80;99.90;;;;;;5014350;28;20251;-79
2020/12/18 03:05:36;;;;;;;25.63;12.43;;;1.80;99.90;;;;;;5013298;28;20271;-78
2020/12/18 03:08:03;;;;;;;23.47;12.17;;;1.90;99.90;;;;;;5015225;28;20582;-79
2020/12/18 03:10:30;;;;;;;26.50;11.97;;;1.80;99.90;;;;;;5013671;28;20650;-79
2020/12/18 03:12:57;;;;;;;26.93;12.93;;;1.80;99.90;;;;;;5013964;28;20659;-79
2020/12/18 03:15:24;;;;;;;28.67;12.80;;;1.80;99.90;;;;;;5013728;28;20201;-79
2020/12/18 03:17:51;;;;;;;23.43;12.47;;;1.80;99.90;;;;;;5014436;28;20201;-78
2020/12/18 03:20:17;;;;;;;22.70;13.00;;;1.80;99.90;;;;;;5013784;28;20217;-79
2020/12/18 03:22:46;;;;;;;24.80;13.30;;;1.80;99.90;;;;;;5014280;28;20658;-79
2020/12/18 03:25:13;;;;;;;22.17;12.63;;;1.80;99.90;;;;;;5013479;28;20201;-79
2020/12/18 03:27:44;;;;;;;22.27;11.93;;;1.80;99.90;;;;;;5012620;28;20205;-79
2020/12/18 03:30:11;;;;;;;18.27;11.77;;;1.80;99.90;;;;;;5010574;28;20201;-79
2020/12/18 03:32:37;;;;;;;21.67;11.93;;;1.80;99.90;;;;;;5010618;28;20251;-78
2020/12/18 03:35:05;;;;;;;22.10;12.33;;;1.80;99.90;;;;;;5011362;28;20212;-78
2020/12/18 03:37:33;;;;;;;18.77;11.37;;;1.80;99.90;;;;;;5012134;28;20209;-79
2020/12/18 03:40:00;;;;;;;18.23;10.93;;;1.80;99.90;;;;;;5013212;28;20279;-78
2020/12/18 03:42:27;;;;;;;20.40;12.07;;;1.80;99.90;;;;;;5012276;28;20259;-78
2020/12/18 03:44:54;;;;;;;18.20;11.83;;;1.80;99.90;;;;;;5011361;28;20213;-78
2020/12/18 03:47:20;;;;;;;18.40;11.13;;;1.80;99.90;;;;;;5013350;28;20677;-78
2020/12/18 03:49:47;;;;;;;19.53;10.90;;;1.90;99.90;;;;;;5012772;28;20259;-78
2020/12/18 03:52:14;;;;;;;16.97;10.93;;;1.90;99.90;;;;;;5011140;28;20209;-78
2020/12/18 03:54:41;;;;;;;15.73;9.97;;;1.90;99.90;;;;;;5011986;28;20201;-78
2020/12/18 03:57:07;;;;;;;17.63;10.77;;;1.80;99.90;;;;;;5012891;28;20291;-79
2020/12/18 03:59:34;;;;;;;15.53;10.83;;;1.80;99.90;;;;;;5011210;28;20259;-78
2020/12/18 04:02:01;;;;;;;15.50;10.37;;;1.80;99.90;;;;;;5011945;28;20204;-78
2020/12/18 04:04:27;;;;;;;18.43;11.40;;;1.90;99.90;;;;;;5011597;28;20212;-79
2020/12/18 04:06:54;;;;;;;16.67;10.23;;;1.90;99.90;;;;;;5011610;28;20657;-78
2020/12/18 04:09:22;;;;;;;16.73;11.10;;;1.90;99.90;;;;;;5011775;28;20607;-79
2020/12/18 04:11:49;;;;;;;17.63;11.20;;;1.90;99.90;;;;;;5012127;28;20212;-79
2020/12/18 04:14:16;;;;;;;16.73;11.07;;;1.90;99.90;;;;;;5012715;28;20255;-79
2020/12/18 04:16:43;;;;;;;15.23;9.57;;;1.90;99.90;;;;;;5013762;28;20212;-79
2020/12/18 04:19:10;;;;;;;16.13;10.73;;;1.80;99.90;;;;;;5011376;28;20213;-79
2020/12/18 04:21:36;;;;;;;15.47;10.57;;;1.80;99.90;;;;;;5012773;28;20267;-79
2020/12/18 04:24:03;;;;;;;16.47;10.63;;;1.80;99.90;;;;;;5012853;28;20610;-79
2020/12/18 04:26:30;;;;;;;18.03;10.83;;;1.80;99.90;;;;;;5022240;28;20200;-79
2020/12/18 04:28:56;;;;;;;15.13;10.00;;;1.80;99.90;;;;;;5031374;28;20227;-79
2020/12/18 04:31:23;;;;;;;14.63;9.67;;;1.90;99.90;;;;;;5033716;28;20262;-79
2020/12/18 04:33:50;;;;;;;14.13;9.87;;;1.80;99.90;;;;;;5025031;28;20213;-78
2020/12/18 04:36:17;;;;;;;16.77;10.43;;;1.80;99.90;;;;;;5011964;28;20209;-79
2020/12/18 04:38:44;;;;;;;14.53;9.63;;;1.80;99.90;;;;;;5012405;28;20231;-79
2020/12/18 04:41:10;;;;;;;16.10;10.50;;;1.80;99.90;;;;;;5012643;28;20567;-79
2020/12/18 04:43:38;;;;;;;16.97;9.67;;;1.80;99.90;;;;;;5016122;28;20201;-78
2020/12/18 04:46:09;;;;;;;13.70;9.23;;;1.80;99.90;;;;;;5016172;28;20255;-79
2020/12/18 04:48:36;;;;;;;16.10;9.60;;;1.70;99.90;;;;;;5016664;28;20663;-79
2020/12/18 04:51:04;;;;;;;14.73;9.23;;;1.70;99.90;;;;;;5016622;28;20197;-79
2020/12/18 04:53:39;;;;;;;14.60;9.53;;;1.70;99.90;;;;;;5016859;28;20207;-79
2020/12/18 04:56:10;;;;;;;17.83;10.50;;;1.70;99.90;;;;;;5014398;28;20205;-79
2020/12/18 04:58:41;;;;;;;16.10;10.03;;;1.60;99.90;;;;;;5013582;28;20752;-79
2020/12/18 05:01:08;;;;;;;16.30;9.90;;;1.60;99.90;;;;;;5014416;28;20653;-79
2020/12/18 05:03:35;;;;;;;16.97;9.77;;;1.60;99.90;;;;;;5013182;28;20530;-78
2020/12/18 05:06:06;;;;;;;18.83;11.17;;;1.70;99.90;;;;;;5014043;28;20205;-79
2020/12/18 05:08:33;;;;;;;16.97;10.00;;;1.70;99.90;;;;;;5014102;28;20189;-79
2020/12/18 05:11:24;;;;;;;14.87;10.87;;;1.70;99.90;;;;;;5013371;28;20207;-78
2020/12/18 05:13:53;;;;;;;19.07;11.20;;;1.70;99.90;;;;;;5015550;28;20250;-79
2020/12/18 05:16:20;;;;;;;15.03;9.60;;;1.70;99.90;;;;;;5013758;28;20259;-78
2020/12/18 05:18:49;;;;;;;13.33;9.30;;;1.70;99.90;;;;;;5014470;28;20240;-78
2020/12/18 05:21:16;;;;;;;15.07;10.43;;;1.70;99.90;;;;;;5013696;28;20678;-78
2020/12/18 05:24:00;;;;;;;18.67;10.37;;;1.70;99.90;;;;;;5014713;28;20408;-79
2020/12/18 05:26:30;;;;;;;14.87;9.93;;;1.70;99.90;;;;;;5023862;28;20203;-79
2020/12/18 05:29:09;;;;;;;16.00;9.50;;;1.70;99.90;;;;;;5033922;28;20196;-78
2020/12/18 05:31:35;;;;;;;17.93;11.03;;;1.70;99.90;;;;;;5033891;28;20208;-78
2020/12/18 05:34:04;;;;;;;15.33;10.37;;;1.70;99.90;;;;;;5026958;28;20216;-79
2020/12/18 05:36:32;;;;;;;16.50;10.97;;;1.70;99.90;;;;;;5011395;28;20639;-79
2020/12/18 05:38:59;;;;;;;16.27;10.37;;;1.70;99.90;;;;;;5011266;28;20258;-78
2020/12/18 05:41:26;;;;;;;17.87;10.70;;;1.70;99.90;;;;;;5010166;28;20201;-78
2020/12/18 05:43:54;;;;;;;15.67;10.43;;;1.70;99.90;;;;;;5010413;28;20227;-78
2020/12/18 05:46:23;;;;;;;13.97;9.47;;;1.60;99.90;;;;;;5010261;28;20652;-78
2020/12/18 05:49:05;;;;;;;15.27;10.60;;;1.60;99.90;;;;;;5010061;28;20197;-78
2020/12/18 05:51:36;;;;;;;15.20;10.30;;;1.60;99.90;;;;;;5012139;28;20276;-77
2020/12/18 05:54:17;;;;;;;15.07;9.30;;;1.60;99.90;;;;;;5009745;28;20203;-78
2020/12/18 05:56:52;;;;;;;16.77;10.07;;;1.60;99.90;;;;;;5010426;28;20460;-78
2020/12/18 05:59:20;;;;;;;13.93;9.17;;;1.60;99.90;;;;;;5013059;28;20224;-79
2020/12/18 06:01:52;;;;;;;15.27;10.03;;;1.60;99.90;;;;;;5015138;28;20236;-79
2020/12/18 06:04:24;;;;;;;14.40;9.67;;;1.60;99.90;;;;;;5014403;28;20228;-78
2020/12/18 06:06:55;;;;;;;14.50;9.27;;;1.60;99.90;;;;;;5014512;28;20193;-79
2020/12/18 06:09:26;;;;;;;13.03;9.40;;;1.60;99.90;;;;;;5014581;28;20542;-79
2020/12/18 06:11:53;;;;;;;15.27;9.83;;;1.60;99.90;;;;;;5013832;28;20185;-79
2020/12/18 06:14:20;;;;;;;13.47;9.37;;;1.60;99.90;;;;;;5014228;28;20607;-80
2020/12/18 06:16:47;;;;;;;15.33;10.00;;;1.60;99.90;;;;;;5014082;28;20207;-79
2020/12/18 06:19:16;;;;;;;14.97;9.73;;;1.60;99.90;;;;;;5014221;28;20229;-79
2020/12/18 06:21:58;;;;;;;13.63;8.83;;;1.60;99.90;;;;;;5014410;28;20431;-79
2020/12/18 06:24:42;;;;;;;14.67;9.53;;;1.60;99.90;;;;;;5014913;28;20247;-78
2020/12/18 06:27:13;;;;;;;14.77;9.87;;;1.60;99.90;;;;;;5030227;28;20223;-79
2020/12/18 06:29:40;;;;;;;15.97;10.33;;;1.60;99.90;;;;;;5034409;28;20188;-80
2020/12/18 06:32:28;;;;;;;14.43;10.17;;;1.60;99.90;;;;;;5034649;28;20763;-79
2020/12/18 06:35:28;;;;;;;15.20;10.77;;;1.60;99.90;;;;;;5018186;28;20670;-78
2020/12/18 06:37:55;;;;;;;15.17;10.30;;;1.60;99.90;;;;;;5012865;28;20259;-79
2020/12/18 06:40:31;;;;;;;15.87;10.43;;;1.60;99.90;;;;;;5012178;28;20224;-79
2020/12/18 06:42:59;;;;;;;19.43;11.47;;;1.60;99.90;;;;;;5012918;28;20251;-78
2020/12/18 06:45:26;;;;;;;18.33;11.10;;;1.70;99.90;;;;;;5012365;28;20217;-79
2020/12/18 06:47:53;;;;;;;17.17;11.17;;;1.60;99.90;;;;;;5012121;28;20621;-79
2020/12/18 06:50:21;;;;;;;17.50;11.07;;;1.60;99.90;;;;;;5013412;28;20689;-79
2020/12/18 06:52:50;;;;;;;25.77;12.03;;;1.60;99.90;;;;;;5011826;28;20235;-79
2020/12/18 06:55:26;;;;;;;23.10;12.17;;;1.60;99.90;;;;;;5012096;28;20212;-78
2020/12/18 06:58:12;;;;;;;32.30;13.17;;;1.60;99.90;;;;;;5013201;28;20201;-79
2020/12/18 07:00:49;;;;;;;24.07;11.33;;;1.50;99.90;;;;;;5011864;28;20264;-78
2020/12/18 07:03:36;;;;;;;26.40;11.77;;;1.50;99.90;;;;;;5012453;28;20204;-77
2020/12/18 07:06:19;;;;;;;20.27;11.07;;;1.50;99.90;;;;;;5011587;28;20296;-78
2020/12/18 07:08:47;;;;;;;42.40;11.70;;;1.60;99.90;;;;;;5012322;28;20551;-78
2020/12/18 07:11:15;;;;;;;40.43;11.87;;;1.50;99.90;;;;;;5013408;28;20658;-78
2020/12/18 07:13:47;;;;;;;25.83;12.43;;;1.50;99.90;;;;;;5012024;28;20201;-79
2020/12/18 07:16:17;;;;;;;43.33;12.63;;;1.50;99.90;;;;;;5012831;28;20223;-78
2020/12/18 07:18:45;;;;;;;17.87;10.40;;;1.60;99.90;;;;;;5012277;28;20233;-79
2020/12/18 07:21:12;;;;;;;22.47;12.10;;;1.60;99.90;;;;;;5012537;28;20258;-78
2020/12/18 07:23:48;;;;;;;46.40;10.90;;;1.60;99.90;;;;;;5012622;28;20573;-79
2020/12/18 07:26:18;;;;;;;32.77;10.97;;;1.60;99.90;;;;;;5012813;28;20247;-79
2020/12/18 07:28:46;;;;;;;19.67;10.27;;;1.60;99.90;;;;;;5013014;28;20197;-79
2020/12/18 07:31:17;;;;;;;34.50;16.97;;;1.60;99.90;;;;;;5013065;28;20255;-78
2020/12/18 07:33:44;;;;;;;52.83;21.63;;;1.60;99.90;;;;;;5013272;28;20232;-79
2020/12/18 07:36:11;;;;;;;23.07;12.70;;;1.60;99.90;;;;;;5012857;28;20231;-79
2020/12/18 07:38:39;;;;;;;23.97;12.37;;;1.70;99.90;;;;;;5012988;28;20205;-79
2020/12/18 07:41:08;;;;;;;20.87;12.03;;;1.70;99.90;;;;;;5012722;28;20219;-79
2020/12/18 07:43:36;;;;;;;31.10;11.23;;;1.70;99.90;;;;;;5012956;28;20205;-79
2020/12/18 07:46:09;;;;;;;27.63;11.97;;;1.80;99.90;;;;;;5013765;28;20224;-79
2020/12/18 07:48:40;;;;;;;23.03;10.40;;;1.80;99.90;;;;;;5013886;28;20564;-79
2020/12/18 07:51:09;;;;;;;21.23;11.90;;;1.80;99.90;;;;;;5013015;28;20247;-79
2020/12/18 07:53:38;;;;;;;17.57;11.93;;;1.80;99.90;;;;;;5015113;28;20233;-79
2020/12/18 07:56:11;;;;;;;20.97;11.27;;;1.80;99.90;;;;;;5012622;28;20205;-79
2020/12/18 07:59:06;;;;;;;17.50;11.77;;;1.90;99.90;;;;;;5014034;28;20417;-79
2020/12/18 08:01:35;;;;;;;22.13;11.60;;;1.90;99.90;;;;;;5013731;28;20232;-79
2020/12/18 08:04:04;;;;;;;31.07;12.57;;;2.00;99.90;;;;;;5012832;28;20239;-79
2020/12/18 08:06:33;;;;;;;39.60;12.03;;;2.10;99.90;;;;;;5012264;28;20701;-79
2020/12/18 08:09:14;;;;;;;33.83;12.20;;;2.10;99.90;;;;;;5010064;28;20662;-79
2020/12/18 08:11:45;;;;;;;18.57;11.13;;;2.10;99.90;;;;;;5011041;28;20540;-78
2020/12/18 08:14:13;;;;;;;23.13;11.90;;;2.10;99.90;;;;;;5012384;28;20189;-79
2020/12/18 08:16:41;;;;;;;15.93;11.57;;;2.10;99.90;;;;;;5010625;28;20690;-79
2020/12/18 08:19:10;;;;;;;16.27;10.60;;;2.10;99.90;;;;;;5014261;28;20694;-79
2020/12/18 08:21:40;;;;;;;18.07;11.33;;;2.20;99.90;;;;;;5014479;28;20271;-78
2020/12/18 08:24:14;;;;;;;16.17;11.00;;;2.20;99.90;;;;;;5016694;28;20197;-79
2020/12/18 08:26:46;;;;;;;15.40;10.67;;;2.30;99.90;;;;;;5014366;28;20198;-79
2020/12/18 08:29:14;;;;;;;14.20;10.23;;;2.30;99.90;;;;;;5014757;28;20220;-78
2020/12/18 08:31:43;;;;;;;14.27;10.07;;;2.40;99.90;;;;;;5014510;28;20208;-80
2020/12/18 08:34:22;;;;;;;15.13;10.70;;;2.40;99.90;;;;;;5015299;28;20741;-79
2020/12/18 08:36:49;;;;;;;13.20;9.57;;;2.40;99.90;;;;;;5016491;28;20196;-79
2020/12/18 08:39:16;;;;;;;14.67;10.43;;;2.40;99.90;;;;;;5014688;28;20266;-79
2020/12/18 08:41:48;;;;;;;13.77;9.77;;;2.50;99.90;;;;;;5014731;28;20255;-79
2020/12/18 08:44:23;;;;;;;13.07;9.57;;;2.50;99.90;;;;;;5015172;28;20220;-79
2020/12/18 08:46:50;;;;;;;12.53;9.30;;;2.60;99.90;;;;;;5016613;28;20184;-79
2020/12/18 08:49:25;;;;;;;11.50;9.60;;;2.70;99.90;;;;;;5015435;28;20674;-78
2020/12/18 08:51:54;;;;;;;13.27;9.83;;;2.80;99.90;;;;;;5015182;28;20419;-78
2020/12/18 08:54:28;;;;;;;13.50;9.60;;;2.80;99.90;;;;;;5014644;28;20592;-79
2020/12/18 08:57:18;;;;;;;12.93;8.77;;;2.90;99.90;;;;;;5015880;28;20678;-79
2020/12/18 09:00:17;;;;;;;12.03;8.87;;;2.90;99.90;;;;;;5015927;28;20236;-79
2020/12/18 09:02:59;;;;;;;13.17;9.10;;;3.00;99.90;;;;;;4993437;28;20237;-79
2020/12/18 09:05:27;;;;;;;10.77;8.57;;;3.00;99.90;;;;;;4978487;28;20277;-79
2020/12/18 09:08:06;;;;;;;12.20;9.13;;;3.10;99.90;;;;;;4978195;28;20206;-78
2020/12/18 09:10:39;;;;;;;11.50;8.60;;;3.20;99.90;;;;;;4993909;28;20228;-79
2020/12/18 09:13:18;;;;;;;12.17;9.40;;;3.30;99.90;;;;;;4978054;28;20651;-79
2020/12/18 09:16:01;;;;;;;13.13;9.50;;;3.30;99.90;;;;;;4977835;28;20194;-79
2020/12/18 09:18:41;;;;;;;18.43;10.00;;;3.40;99.90;;;;;;4978226;28;20213;-79
2020/12/18 09:21:14;;;;;;;17.70;11.70;;;3.40;99.90;;;;;;4976902;28;20181;-79
2020/12/18 09:23:43;;;;;;;21.60;12.10;;;3.40;99.90;;;;;;4973867;28;20275;-79
2020/12/18 09:26:26;;;;;;;18.97;11.60;;;3.40;99.90;;;;;;4974731;28;20232;-78
2020/12/18 09:28:53;;;;;;;20.27;12.60;;;3.40;99.90;;;;;;4973252;28;20312;-79
2020/12/18 09:31:20;;;;;;;20.13;12.17;;;3.40;99.90;;;;;;4974543;28;20206;-78
2020/12/18 09:33:46;;;;;;;23.87;12.20;;;3.50;99.90;;;;;;4973492;28;20206;-79
2020/12/18 09:36:16;;;;;;;22.83;13.63;;;3.50;99.90;;;;;;4959433;28;20683;-79
2020/12/18 09:38:44;;;;;;;21.83;14.33;;;3.50;99.90;;;;;;4969577;28;20655;-79
2020/12/18 09:41:19;;;;;;;19.80;12.70;;;3.50;99.90;;;;;;4996076;28;20722;-79
2020/12/18 09:43:46;;;;;;;22.87;14.10;;;3.50;99.90;;;;;;4997913;28;20177;-79
2020/12/18 09:46:12;;;;;;;20.47;12.23;;;3.60;99.90;;;;;;4996609;28;20212;-79
2020/12/18 09:48:41;;;;;;;22.73;13.57;;;3.70;99.90;;;;;;4991554;28;20264;-78
2020/12/18 09:51:08;;;;;;;19.27;13.00;;;3.70;99.90;;;;;;4990688;28;20256;-78
2020/12/18 09:53:35;;;;;;;21.30;11.93;;;3.70;99.90;;;;;;4990357;28;20478;-78
2020/12/18 09:56:01;;;;;;;22.03;12.83;;;3.70;99.90;;;;;;4990520;28;20210;-78
2020/12/18 09:58:28;;;;;;;22.03;13.00;;;3.80;99.90;;;;;;4992046;28;20256;-78
2020/12/18 10:00:55;;;;;;;23.40;13.40;;;3.80;99.90;;;;;;4990293;28;20244;-78
2020/12/18 10:03:22;;;;;;;17.73;11.43;;;3.90;99.90;;;;;;4994090;28;20221;-78
2020/12/18 10:05:48;;;;;;;21.53;12.60;;;3.90;99.90;;;;;;5011491;28;20227;-78
2020/12/18 10:08:15;;;;;;;18.33;12.13;;;4.00;99.90;;;;;;5011978;28;20667;-79
2020/12/18 10:10:42;;;;;;;18.23;12.07;;;4.00;99.90;;;;;;5013234;28;20228;-79
2020/12/18 10:13:09;;;;;;;15.67;11.17;;;4.10;99.90;;;;;;5014167;28;20208;-79
2020/12/18 10:15:35;;;;;;;18.50;12.27;;;4.10;99.90;;;;;;5013841;28;20205;-79
2020/12/18 10:18:02;;;;;;;17.10;11.10;;;4.10;99.90;;;;;;5014016;28;20482;-79
2020/12/18 10:20:29;;;;;;;18.40;11.50;;;4.10;99.90;;;;;;5014984;28;20220;-79
2020/12/18 10:22:56;;;;;;;19.17;11.17;;;4.10;99.90;;;;;;4993935;28;20563;-79
2020/12/18 10:25:23;;;;;;;18.17;11.30;;;4.10;99.90;;;;;;4996919;28;20204;-79
2020/12/18 10:27:49;;;;;;;17.77;11.67;;;4.10;99.90;;;;;;5035640;28;20526;-79
2020/12/18 10:30:16;;;;;;;17.13;11.37;;;4.10;99.90;;;;;;5034934;28;20203;-79
2020/12/18 10:32:45;;;;;;;16.20;10.90;;;4.20;99.90;;;;;;5035142;28;20200;-79
2020/12/18 10:35:12;;;;;;;21.23;11.80;;;4.20;99.90;;;;;;5015082;28;20725;-79
2020/12/18 10:37:39;;;;;;;15.63;10.70;;;4.20;99.90;;;;;;5015183;28;20208;-79
2020/12/18 10:40:06;;;;;;;17.93;10.57;;;4.20;99.90;;;;;;5012630;28;20223;-78
2020/12/18 10:42:33;;;;;;;16.60;11.20;;;4.20;99.90;;;;;;5015216;28;20212;-79
2020/12/18 10:44:59;;;;;;;17.40;10.80;;;4.10;99.90;;;;;;5014382;28;20248;-79
2020/12/18 10:47:26;;;;;;;16.60;11.40;;;4.10;99.90;;;;;;5014139;28;20726;-79
2020/12/18 10:50:17;;;;;;;17.17;11.83;;;4.10;99.90;;;;;;5014580;28;20184;-78
2020/12/18 10:53:09;;;;;;;19.57;11.70;;;4.20;99.90;;;;;;5015429;28;20188;-79
2020/12/18 10:56:01;;;;;;;17.37;11.83;;;4.10;99.90;;;;;;5014525;28;20253;-79
2020/12/18 10:58:28;;;;;;;17.30;12.03;;;4.20;99.90;;;;;;5014209;28;20205;-79
2020/12/18 11:01:01;;;;;;;18.60;11.07;;;4.20;99.90;;;;;;5013728;28;20252;-79
2020/12/18 11:03:27;;;;;;;21.73;13.07;;;4.20;99.90;;;;;;5017076;28;20201;-79
2020/12/18 11:05:54;;;;;;;21.00;13.07;;;4.30;99.90;;;;;;5014911;28;20605;-79
2020/12/18 11:08:21;;;;;;;20.07;12.90;;;4.20;99.90;;;;;;5015059;28;20204;-79
2020/12/18 11:10:48;;;;;;;18.70;12.17;;;4.20;99.90;;;;;;5014662;28;20211;-79
2020/12/18 11:13:14;;;;;;;21.50;13.63;;;4.20;99.90;;;;;;5014506;28;20213;-79
2020/12/18 11:15:43;;;;;;;23.20;15.13;;;4.20;99.90;;;;;;5014315;28;20225;-79
2020/12/18 11:18:09;;;;;;;29.10;16.60;;;4.10;99.90;;;;;;5012845;28;20223;-79
2020/12/18 11:20:37;;;;;;;28.53;16.07;;;4.00;99.90;;;;;;5011464;28;20217;-79
2020/12/18 11:23:04;;;;;;;26.13;15.53;;;4.00;99.90;;;;;;5011039;28;20260;-79
2020/12/18 11:25:31;;;;;;;29.03;16.83;;;3.90;99.90;;;;;;5011813;28;20209;-79
2020/12/18 11:27:57;;;;;;;31.70;16.87;;;3.80;99.90;;;;;;5014363;28;20232;-78
2020/12/18 11:30:24;;;;;;;30.13;17.03;;;3.70;99.90;;;;;;5012215;28;20211;-79
2020/12/18 11:32:50;;;;;;;29.50;15.87;;;3.60;99.90;;;;;;5012699;28;20204;-78
2020/12/18 11:35:17;;;;;;;41.73;15.13;;;3.50;99.90;;;;;;5012768;28;20204;-78
2020/12/18 11:37:44;;;;;;;28.07;14.93;;;3.40;99.90;;;;;;5011007;28;20213;-79
2020/12/18 11:40:11;;;;;;;35.00;15.90;;;3.30;99.90;;;;;;5013491;28;20217;-79
2020/12/18 11:42:38;;;;;;;33.33;16.60;;;3.30;99.90;;;;;;5011922;28;20201;-79
2020/12/18 11:45:04;;;;;;;27.03;13.60;;;3.20;99.90;;;;;;5013097;28;20236;-78
2020/12/18 11:47:32;;;;;;;22.67;12.97;;;3.20;99.90;;;;;;5012297;28;20255;-79
2020/12/18 11:49:59;;;;;;;25.43;14.00;;;3.10;99.90;;;;;;5011484;28;20299;-78
2020/12/18 11:52:26;;;;;;;77.00;18.03;;;3.10;99.90;;;;;;5011619;28;20225;-79
2020/12/18 11:54:52;;;;;;;32.80;14.70;;;3.10;99.90;;;;;;5012866;28;20197;-79
2020/12/18 11:57:21;;;;;;;32.10;15.57;;;3.00;99.90;;;;;;5012399;28;20213;-79
2020/12/18 11:59:47;;;;;;;33.03;16.07;;;3.00;99.90;;;;;;5011685;28;20547;-79
2020/12/18 12:02:14;;;;;;;45.23;15.77;;;3.00;99.90;;;;;;5011969;28;20193;-78
2020/12/18 12:04:42;;;;;;;46.57;17.17;;;3.00;99.90;;;;;;5012961;28;20228;-79
2020/12/18 12:07:09;;;;;;;34.07;16.53;;;3.00;99.90;;;;;;5012468;28;20583;-79
2020/12/18 12:09:35;;;;;;;40.17;16.23;;;3.00;99.90;;;;;;5012870;28;20204;-79
2020/12/18 12:12:02;;;;;;;50.53;16.30;;;3.10;99.90;;;;;;5011997;28;20209;-79
2020/12/18 12:14:29;;;;;;;40.60;17.20;;;3.10;99.90;;;;;;5011821;28;20208;-79
2020/12/18 12:16:56;;;;;;;30.53;15.77;;;3.10;99.90;;;;;;5012722;28;20201;-80
2020/12/18 12:19:24;;;;;;;29.53;16.07;;;3.10;99.90;;;;;;5012405;28;20221;-79
2020/12/18 12:21:51;;;;;;;32.23;14.93;;;3.10;99.90;;;;;;5012200;28;20674;-79
2020/12/18 12:24:17;;;;;;;38.47;15.37;;;3.10;99.90;;;;;;5012968;28;20312;-79
2020/12/18 12:26:47;;;;;;;41.47;15.33;;;3.10;99.90;;;;;;5025046;28;20239;-79
2020/12/18 12:29:14;;;;;;;37.10;15.43;;;3.00;99.90;;;;;;5032862;28;20216;-79
2020/12/18 12:31:41;;;;;;;42.83;15.20;;;3.00;99.90;;;;;;5031883;28;20204;-79
2020/12/18 12:34:07;;;;;;;38.90;15.33;;;3.00;99.90;;;;;;5023236;28;20209;-79
2020/12/18 12:36:35;;;;;;;43.90;16.83;;;3.00;99.90;;;;;;5004824;28;20213;-79
2020/12/18 12:39:02;;;;;;;38.87;14.70;;;3.00;99.90;;;;;;4993019;28;20878;-80
2020/12/18 12:41:30;;;;;;;26.53;14.67;;;3.00;99.90;;;;;;4993200;28;20684;-78
2020/12/18 12:43:57;;;;;;;42.87;13.97;;;2.90;99.90;;;;;;4992633;28;20260;-79
2020/12/18 12:46:25;;;;;;;27.27;14.20;;;2.90;99.90;;;;;;4993330;28;20672;-79
2020/12/18 12:48:52;;;;;;;27.80;13.20;;;2.90;99.90;;;;;;4993484;28;20198;-79